Time;durP1;ratioP1;P1;durP2;ratioP2;P2;SDS_P1;SDS_P2;PMS_P1;PMS_P2;Temp;Humidity;BMP_temperature;BMP_pressure;BME280_temperature;BME280_humidity;BME280_pressure;Samples;Min_cycle;Max_cycle;Signal;HPM_P1;HPM_P2
2022/08/24 00:01:14;;;;;;;6.80;5.53;;;15.00;99.90;;;;;;5044898;28;20437;-63
2022/08/24 00:03:40;;;;;;;11.60;5.90;;;14.90;99.90;;;;;;5040645;28;20449;-62
2022/08/24 00:06:10;;;;;;;8.93;5.57;;;14.90;99.90;;;;;;5051740;28;20456;-63
2022/08/24 00:08:37;;;;;;;7.43;5.83;;;14.90;99.90;;;;;;5056082;28;20440;-65
2022/08/24 00:11:03;;;;;;;6.50;5.80;;;14.80;99.90;;;;;;5042957;28;20642;-63
2022/08/24 00:13:29;;;;;;;6.43;5.87;;;14.80;99.90;;;;;;5041449;28;20915;-63
2022/08/24 00:15:56;;;;;;;7.43;5.70;;;14.80;99.90;;;;;;5042759;28;20480;-63
2022/08/24 00:18:22;;;;;;;8.10;6.23;;;14.80;99.90;;;;;;5041675;28;20450;-62
2022/08/24 00:20:47;;;;;;;5.97;5.37;;;14.80;99.90;;;;;;5046729;28;20429;-62
2022/08/24 00:23:14;;;;;;;7.43;5.47;;;14.80;99.90;;;;;;5050609;28;20652;-63
2022/08/24 00:25:41;;;;;;;7.23;5.17;;;14.80;99.90;;;;;;5044639;28;20667;-63
2022/08/24 00:28:06;;;;;;;7.57;6.03;;;14.70;99.90;;;;;;5053674;28;20956;-64
2022/08/24 00:30:33;;;;;;;8.90;6.27;;;14.70;99.90;;;;;;5058156;28;20416;-62
2022/08/24 00:32:59;;;;;;;7.40;6.00;;;14.70;99.90;;;;;;5057615;28;20167;-61
2022/08/24 00:35:25;;;;;;;6.83;6.13;;;14.70;99.90;;;;;;5045826;28;21636;-61
2022/08/24 00:37:52;;;;;;;6.33;5.53;;;14.70;99.90;;;;;;5052371;28;20202;-62
2022/08/24 00:40:25;;;;;;;6.60;6.00;;;14.60;99.90;;;;;;5040312;28;20555;-62
2022/08/24 00:42:52;;;;;;;7.80;5.53;;;14.60;99.90;;;;;;5042611;28;20456;-62
2022/08/24 00:45:20;;;;;;;7.23;6.47;;;14.50;99.90;;;;;;5049543;28;20789;-62
2022/08/24 00:48:03;;;;;;;7.97;6.00;;;14.50;99.90;;;;;;5047451;28;20429;-62
2022/08/24 00:50:37;;;;;;;9.40;5.83;;;14.50;99.90;;;;;;5039968;28;20442;-63
2022/08/24 00:53:08;;;;;;;7.60;5.73;;;14.50;99.90;;;;;;5060214;28;20433;-62
2022/08/24 00:55:49;;;;;;;6.73;5.63;;;14.40;99.90;;;;;;5066539;28;20460;-62
2022/08/24 00:58:20;;;;;;;7.90;6.17;;;14.40;99.90;;;;;;5052297;28;20441;-61
2022/08/24 01:00:52;;;;;;;11.93;6.23;;;14.40;99.90;;;;;;5059486;28;20422;-62
2022/08/24 01:03:18;;;;;;;8.47;5.60;;;14.40;99.90;;;;;;5050308;28;20989;-62
2022/08/24 01:05:44;;;;;;;7.13;5.80;;;14.30;99.90;;;;;;5063546;28;20657;-62
2022/08/24 01:08:11;;;;;;;9.17;5.90;;;14.30;99.90;;;;;;5049735;28;21001;-62
2022/08/24 01:10:42;;;;;;;7.50;6.70;;;14.20;99.90;;;;;;5045650;28;20433;-60
2022/08/24 01:13:10;;;;;;;5.83;5.30;;;14.20;99.90;;;;;;5051898;28;20930;-63
2022/08/24 01:15:40;;;;;;;8.23;6.07;;;14.20;99.90;;;;;;5047634;28;20492;-62
2022/08/24 01:21:20;;;;;;;10.40;5.93;;;14.10;99.90;;;;;;5056370;28;20427;-63
2022/08/24 01:23:48;;;;;;;7.40;5.93;;;14.10;99.90;;;;;;5060375;28;20435;-62
2022/08/24 01:26:17;;;;;;;6.20;5.60;;;14.10;99.90;;;;;;5046077;28;20454;-63
2022/08/24 01:28:47;;;;;;;6.80;6.10;;;14.10;99.90;;;;;;5048965;28;20425;-62
2022/08/24 01:31:13;;;;;;;9.63;6.37;;;14.10;99.90;;;;;;5056086;28;20444;-62
2022/08/24 01:33:39;;;;;;;7.93;6.60;;;14.10;99.90;;;;;;5048160;28;20802;-62
2022/08/24 01:36:33;;;;;;;7.10;6.50;;;14.00;99.90;;;;;;5047588;28;20820;-62
2022/08/24 01:39:20;;;;;;;9.90;6.53;;;14.00;99.90;;;;;;5038708;28;20441;-62
2022/08/24 01:41:46;;;;;;;7.10;6.37;;;14.00;99.90;;;;;;5047302;28;20429;-62
2022/08/24 01:44:12;;;;;;;7.80;6.00;;;14.00;99.90;;;;;;5047515;28;20999;-62
2022/08/24 01:46:49;;;;;;;10.10;6.50;;;14.00;99.90;;;;;;5046792;28;20511;-62
2022/08/24 01:49:15;;;;;;;8.47;6.43;;;14.00;99.90;;;;;;5045739;28;20433;-63
2022/08/24 01:51:42;;;;;;;7.80;6.73;;;14.00;99.90;;;;;;5045640;28;20433;-61
2022/08/24 01:54:08;;;;;;;7.50;6.23;;;13.90;99.90;;;;;;5043867;28;20452;-63
2022/08/24 01:56:35;;;;;;;7.00;6.30;;;13.90;99.90;;;;;;5058810;28;20456;-63
2022/08/24 01:59:01;;;;;;;9.37;6.37;;;13.80;99.90;;;;;;5055017;28;21089;-63
2022/08/24 02:01:30;;;;;;;8.50;6.13;;;13.80;99.90;;;;;;5054840;28;20487;-63
2022/08/24 02:03:58;;;;;;;7.20;6.23;;;13.80;99.90;;;;;;5046810;28;20448;-62
2022/08/24 02:06:26;;;;;;;6.20;5.60;;;13.80;99.90;;;;;;5058964;28;20488;-64
2022/08/24 02:08:51;;;;;;;7.60;6.40;;;13.80;99.90;;;;;;5062415;28;20462;-64
2022/08/24 02:11:17;;;;;;;13.03;6.60;;;13.80;99.90;;;;;;5049000;28;20438;-62
2022/08/24 02:13:43;;;;;;;10.17;5.87;;;13.70;99.90;;;;;;5049126;28;20757;-63
2022/08/24 02:16:08;;;;;;;10.97;6.80;;;13.70;99.90;;;;;;5047606;28;20214;-63
2022/08/24 02:18:35;;;;;;;12.10;7.13;;;13.60;99.90;;;;;;5045842;28;20177;-62
2022/08/24 02:21:01;;;;;;;7.33;6.30;;;13.60;99.90;;;;;;5054701;28;20182;-62
2022/08/24 02:23:28;;;;;;;6.93;6.33;;;13.60;99.90;;;;;;5051878;28;21087;-62
2022/08/24 02:25:54;;;;;;;7.27;6.30;;;13.50;99.90;;;;;;5053701;28;20714;-63
2022/08/24 02:28:20;;;;;;;10.00;6.60;;;13.50;99.90;;;;;;5042971;28;20469;-63
2022/08/24 02:30:46;;;;;;;8.70;5.90;;;13.50;99.90;;;;;;5047221;28;20461;-63
2022/08/24 02:33:12;;;;;;;8.73;6.43;;;13.40;99.90;;;;;;5042070;28;20183;-63
2022/08/24 02:35:38;;;;;;;10.80;6.30;;;13.40;99.90;;;;;;5047110;28;20261;-63
2022/08/24 02:38:04;;;;;;;7.40;6.30;;;13.40;99.90;;;;;;5054375;28;20516;-63
2022/08/24 02:40:31;;;;;;;7.03;6.33;;;13.40;99.90;;;;;;5049053;28;20553;-63
2022/08/24 02:42:57;;;;;;;7.53;6.83;;;13.40;99.90;;;;;;5038946;28;20264;-63
2022/08/24 02:45:23;;;;;;;13.03;6.87;;;13.40;99.90;;;;;;5044223;28;20445;-64
2022/08/24 02:47:49;;;;;;;7.90;5.80;;;13.40;99.90;;;;;;5046968;28;20491;-62
2022/08/24 02:50:16;;;;;;;7.53;6.83;;;13.40;99.90;;;;;;5049796;28;20542;-63
2022/08/24 02:52:42;;;;;;;6.80;6.20;;;13.30;99.90;;;;;;5055883;28;20186;-62
2022/08/24 02:55:12;;;;;;;7.17;6.47;;;13.30;99.90;;;;;;5047682;28;22432;-63
2022/08/24 02:57:39;;;;;;;7.83;5.90;;;13.30;99.90;;;;;;5044549;28;20450;-63
2022/08/24 03:00:08;;;;;;;6.50;5.90;;;13.30;99.90;;;;;;5046206;28;20433;-62
2022/08/24 03:02:34;;;;;;;9.63;7.87;;;13.30;99.90;;;;;;5045813;28;20583;-62
2022/08/24 03:05:00;;;;;;;12.03;6.87;;;13.30;99.90;;;;;;5042895;28;21006;-62
2022/08/24 03:07:27;;;;;;;7.23;6.53;;;13.30;99.90;;;;;;5045541;28;20432;-63
2022/08/24 03:09:52;;;;;;;7.40;5.70;;;13.20;99.90;;;;;;5044740;28;20545;-63
2022/08/24 03:12:18;;;;;;;9.70;6.40;;;13.20;99.90;;;;;;5056957;28;20520;-63
2022/08/24 03:14:44;;;;;;;9.37;6.40;;;13.20;99.90;;;;;;5052444;28;20675;-64
2022/08/24 03:17:10;;;;;;;10.97;6.73;;;13.20;99.90;;;;;;5056201;28;20652;-63
2022/08/24 03:19:35;;;;;;;7.03;6.43;;;13.20;99.90;;;;;;5041292;28;20201;-63
2022/08/24 03:22:01;;;;;;;9.83;6.57;;;13.10;99.90;;;;;;5057265;28;20545;-62
2022/08/24 03:24:27;;;;;;;9.00;6.77;;;13.10;99.90;;;;;;5046190;28;20655;-62
2022/08/24 03:26:53;;;;;;;13.93;6.63;;;13.10;99.90;;;;;;5060690;28;20208;-61
2022/08/24 03:29:18;;;;;;;9.67;6.13;;;13.00;99.90;;;;;;5053324;28;20183;-62
2022/08/24 03:31:44;;;;;;;6.90;6.20;;;13.00;99.90;;;;;;5047196;28;20182;-62
2022/08/24 03:34:13;;;;;;;7.30;6.60;;;13.00;99.90;;;;;;5060219;28;20201;-62
2022/08/24 03:36:40;;;;;;;7.27;6.57;;;13.00;99.90;;;;;;5046814;28;20507;-62
2022/08/24 03:39:06;;;;;;;8.37;6.57;;;12.90;99.90;;;;;;5048882;28;20529;-61
2022/08/24 03:41:32;;;;;;;7.77;6.67;;;12.90;99.90;;;;;;5061751;28;20452;-61
2022/08/24 03:43:57;;;;;;;6.90;6.20;;;12.90;99.90;;;;;;5043990;28;20510;-62
2022/08/24 03:46:27;;;;;;;9.40;6.23;;;12.90;99.90;;;;;;5038200;28;20657;-59
2022/08/24 03:48:57;;;;;;;8.80;6.37;;;12.90;99.90;;;;;;5046418;28;20182;-62
2022/08/24 03:51:25;;;;;;;8.80;7.03;;;12.80;99.90;;;;;;5052465;28;20468;-62
2022/08/24 03:53:52;;;;;;;9.43;6.93;;;12.80;99.90;;;;;;5055131;28;20457;-62
2022/08/24 03:56:18;;;;;;;6.50;5.97;;;12.80;99.90;;;;;;5052976;28;20465;-61
2022/08/24 03:58:45;;;;;;;7.30;6.57;;;12.80;99.90;;;;;;5045556;28;20433;-61
2022/08/24 04:01:11;;;;;;;9.60;6.73;;;12.80;99.90;;;;;;5040808;28;20441;-62
2022/08/24 04:03:42;;;;;;;7.83;6.73;;;12.70;99.90;;;;;;5046382;28;20452;-63
2022/08/24 04:06:10;;;;;;;9.43;6.80;;;12.70;99.90;;;;;;5050877;28;20464;-62
2022/08/24 04:08:36;;;;;;;9.90;7.00;;;12.70;99.90;;;;;;5046989;28;20435;-62
2022/08/24 04:11:03;;;;;;;8.40;7.17;;;12.70;99.90;;;;;;5039306;28;20452;-62
2022/08/24 04:13:31;;;;;;;9.10;6.53;;;12.70;99.90;;;;;;5051458;28;20969;-62
2022/08/24 04:16:09;;;;;;;7.67;6.97;;;12.70;99.90;;;;;;5046996;28;20527;-63
2022/08/24 04:18:35;;;;;;;6.33;5.73;;;12.70;99.90;;;;;;5043944;28;21199;-61
2022/08/24 04:21:01;;;;;;;8.10;6.80;;;12.60;99.90;;;;;;5058121;28;20404;-63
2022/08/24 04:23:27;;;;;;;7.90;7.10;;;12.60;99.90;;;;;;5057379;28;20409;-63
2022/08/24 04:25:53;;;;;;;10.30;7.27;;;12.60;99.90;;;;;;5044574;28;20495;-63
2022/08/24 04:28:20;;;;;;;8.50;6.57;;;12.60;99.90;;;;;;5048420;28;20860;-63
2022/08/24 04:30:49;;;;;;;7.60;6.90;;;12.50;99.90;;;;;;5037644;28;20183;-63
2022/08/24 04:33:16;;;;;;;9.63;7.40;;;12.60;99.90;;;;;;5042472;28;20464;-62
2022/08/24 04:35:44;;;;;;;7.67;6.87;;;12.50;99.90;;;;;;5055226;28;20472;-63
2022/08/24 04:38:10;;;;;;;7.07;6.37;;;12.50;99.90;;;;;;5055530;28;20517;-63
2022/08/24 04:40:41;;;;;;;9.30;7.60;;;12.50;99.90;;;;;;5044686;28;20529;-63
2022/08/24 04:43:07;;;;;;;7.70;6.97;;;12.50;99.90;;;;;;5047800;28;20433;-62
2022/08/24 04:45:37;;;;;;;12.03;7.10;;;12.50;99.90;;;;;;5035546;28;20549;-62
2022/08/24 04:48:04;;;;;;;8.43;7.10;;;12.50;99.90;;;;;;5051378;28;20955;-62
2022/08/24 04:50:29;;;;;;;8.23;7.43;;;12.50;99.90;;;;;;5055538;28;20497;-62
2022/08/24 04:52:55;;;;;;;7.63;6.57;;;12.50;99.90;;;;;;5044772;28;21147;-62
2022/08/24 04:55:21;;;;;;;7.53;6.83;;;12.50;99.90;;;;;;5044092;28;20203;-63
2022/08/24 04:57:47;;;;;;;7.77;6.93;;;12.50;99.90;;;;;;5048191;28;20575;-62
2022/08/24 05:00:13;;;;;;;9.57;7.20;;;12.50;99.90;;;;;;5045546;28;20179;-63
2022/08/24 05:02:38;;;;;;;10.50;6.80;;;12.50;99.90;;;;;;5045429;28;20228;-63
2022/08/24 05:05:09;;;;;;;9.70;6.73;;;12.50;99.90;;;;;;5043698;28;20175;-62
2022/08/24 05:07:35;;;;;;;10.57;7.73;;;12.50;99.90;;;;;;5061523;28;20725;-64
2022/08/24 05:10:02;;;;;;;7.43;6.70;;;12.60;99.90;;;;;;5048313;28;20433;-62
2022/08/24 05:12:28;;;;;;;8.33;6.60;;;12.60;99.90;;;;;;5061737;28;20436;-62
2022/08/24 05:14:54;;;;;;;7.80;6.93;;;12.60;99.90;;;;;;5040341;28;20465;-60
2022/08/24 05:17:20;;;;;;;10.60;7.33;;;12.60;99.90;;;;;;5041890;28;20445;-61
2022/08/24 05:19:45;;;;;;;8.00;7.20;;;12.70;99.90;;;;;;5059400;28;20903;-63
2022/08/24 05:22:11;;;;;;;7.33;6.63;;;12.70;99.90;;;;;;5057780;28;20225;-62
2022/08/24 05:24:37;;;;;;;8.73;6.90;;;12.80;99.90;;;;;;5050817;28;20171;-62
2022/08/24 05:27:02;;;;;;;10.00;6.67;;;12.80;99.90;;;;;;5050707;28;20191;-62
2022/08/24 05:29:32;;;;;;;10.60;6.93;;;12.80;99.90;;;;;;5049436;28;20578;-62
2022/08/24 05:31:58;;;;;;;9.50;7.47;;;12.90;99.90;;;;;;5054074;28;20707;-64
2022/08/24 05:34:24;;;;;;;14.57;7.67;;;12.90;99.90;;;;;;5045155;28;20427;-61
2022/08/24 05:36:49;;;;;;;12.13;7.40;;;12.90;99.90;;;;;;5049289;28;20564;-63
2022/08/24 05:39:15;;;;;;;14.47;7.40;;;13.00;99.90;;;;;;5049492;28;20516;-61
2022/08/24 05:41:42;;;;;;;14.17;6.80;;;13.10;99.90;;;;;;5047390;28;20182;-62
2022/08/24 05:44:08;;;;;;;9.27;6.57;;;13.10;99.90;;;;;;5052923;28;20183;-62
2022/08/24 05:46:34;;;;;;;9.07;7.77;;;13.20;99.90;;;;;;5047968;28;20971;-63
2022/08/24 05:49:00;;;;;;;8.30;7.43;;;13.30;99.90;;;;;;5054736;28;20579;-62
2022/08/24 05:51:28;;;;;;;9.20;7.00;;;13.40;99.90;;;;;;5054162;28;20189;-63
2022/08/24 05:53:55;;;;;;;11.43;6.80;;;13.40;99.90;;;;;;5058484;28;20479;-60
2022/08/24 05:56:21;;;;;;;7.43;6.73;;;13.50;99.90;;;;;;5049230;28;21010;-63
2022/08/24 05:58:47;;;;;;;7.40;6.80;;;13.50;99.90;;;;;;5057573;28;20509;-61
2022/08/24 06:01:19;;;;;;;7.93;7.13;;;13.50;99.90;;;;;;5049326;28;20745;-62
2022/08/24 06:03:46;;;;;;;10.20;6.70;;;13.50;99.90;;;;;;5048430;28;20199;-62
2022/08/24 06:06:13;;;;;;;8.77;6.97;;;13.60;99.90;;;;;;5058473;28;20452;-63
2022/08/24 06:08:43;;;;;;;7.37;6.67;;;13.70;99.90;;;;;;5047838;28;20889;-64
2022/08/24 06:11:09;;;;;;;9.07;7.20;;;13.80;99.90;;;;;;5051912;28;20433;-63
2022/08/24 06:13:35;;;;;;;7.97;7.20;;;13.90;99.90;;;;;;5059548;28;20559;-62
2022/08/24 06:16:10;;;;;;;8.57;6.33;;;14.00;99.90;;;;;;5047688;28;21096;-63
2022/08/24 06:18:36;;;;;;;7.07;6.27;;;14.00;99.90;;;;;;5047853;28;20656;-64
2022/08/24 06:21:08;;;;;;;9.87;6.60;;;14.10;99.90;;;;;;5049511;28;20414;-62
2022/08/24 06:23:34;;;;;;;8.20;6.70;;;14.20;99.90;;;;;;5039997;28;20433;-62
2022/08/24 06:28:46;;;;;;;9.10;7.30;;;14.40;99.90;;;;;;5054309;28;20467;-63
2022/08/24 06:31:12;;;;;;;7.80;7.10;;;14.50;99.90;;;;;;5055010;28;20425;-62
2022/08/24 06:33:38;;;;;;;8.23;7.30;;;14.60;99.90;;;;;;5044372;28;20171;-61
2022/08/24 06:36:04;;;;;;;7.93;7.10;;;14.60;99.90;;;;;;5047114;28;20457;-62
2022/08/24 06:38:30;;;;;;;10.50;7.00;;;14.70;99.90;;;;;;5049861;28;20444;-62
2022/08/24 06:40:55;;;;;;;14.63;8.27;;;14.80;99.90;;;;;;5033629;28;20680;-62
2022/08/24 06:43:23;;;;;;;13.37;7.77;;;14.90;99.90;;;;;;5041219;28;20205;-61
2022/08/24 06:45:49;;;;;;;7.30;6.60;;;15.00;99.90;;;;;;5047390;28;20207;-60
2022/08/24 06:48:15;;;;;;;8.00;7.17;;;15.10;99.90;;;;;;5048248;28;20498;-62
2022/08/24 06:50:40;;;;;;;8.43;7.13;;;15.10;99.90;;;;;;5045307;28;20191;-64
2022/08/24 06:53:06;;;;;;;8.03;7.10;;;15.20;99.90;;;;;;5050380;28;20501;-63
2022/08/24 06:55:32;;;;;;;8.50;7.33;;;15.20;99.90;;;;;;5036484;28;20218;-61
2022/08/24 06:57:57;;;;;;;8.23;7.33;;;15.30;99.90;;;;;;5036966;28;20873;-63
2022/08/24 07:00:23;;;;;;;8.30;6.80;;;15.40;99.90;;;;;;5040907;28;20175;-61
2022/08/24 07:02:50;;;;;;;9.33;7.63;;;15.40;99.90;;;;;;5043589;28;20262;-61
2022/08/24 07:05:17;;;;;;;9.97;7.27;;;15.50;99.90;;;;;;5047259;28;20490;-60
2022/08/24 07:07:42;;;;;;;9.80;7.93;;;15.60;99.90;;;;;;5048972;28;20918;-61
2022/08/24 07:10:08;;;;;;;10.77;7.27;;;15.70;99.90;;;;;;5053297;28;21035;-63
2022/08/24 07:12:35;;;;;;;8.37;7.10;;;15.80;99.90;;;;;;5044099;28;20651;-63
2022/08/24 07:15:03;;;;;;;9.70;7.80;;;15.90;99.90;;;;;;5038309;28;20469;-62
2022/08/24 07:17:28;;;;;;;11.27;8.03;;;16.00;99.90;;;;;;5041673;28;20464;-61
2022/08/24 07:19:54;;;;;;;7.70;6.93;;;16.20;99.90;;;;;;5045475;28;20799;-62
2022/08/24 07:22:20;;;;;;;10.27;8.00;;;16.30;99.90;;;;;;5042427;28;20200;-66
2022/08/24 07:24:46;;;;;;;11.73;7.87;;;16.40;99.90;;;;;;5036853;28;20183;-61
2022/08/24 07:27:12;;;;;;;18.63;7.63;;;16.60;99.90;;;;;;5043293;28;20312;-61
2022/08/24 07:29:39;;;;;;;11.13;7.47;;;16.70;99.60;;;;;;5044338;28;20561;-61
2022/08/24 07:32:05;;;;;;;11.80;7.10;;;16.80;99.30;;;;;;5043823;28;20810;-62
2022/08/24 07:34:31;;;;;;;12.00;6.73;;;17.00;98.80;;;;;;5039003;28;20430;-62
2022/08/24 07:36:59;;;;;;;7.53;6.80;;;17.10;96.90;;;;;;5043908;28;20281;-66
2022/08/24 07:39:25;;;;;;;10.53;7.30;;;17.30;95.80;;;;;;5042394;28;20421;-61
2022/08/24 07:41:51;;;;;;;8.00;7.17;;;17.40;94.50;;;;;;5037179;28;20434;-62
2022/08/24 07:44:17;;;;;;;8.80;5.90;;;17.50;94.80;;;;;;5038766;28;20473;-61
2022/08/24 07:46:43;;;;;;;8.27;6.70;;;17.60;95.40;;;;;;5054866;28;20195;-62
2022/08/24 07:49:11;;;;;;;8.33;6.20;;;17.80;95.50;;;;;;5049776;28;20210;-62
2022/08/24 07:51:37;;;;;;;6.90;6.20;;;17.90;94.60;;;;;;5048878;28;20422;-61
2022/08/24 07:54:03;;;;;;;8.00;6.17;;;18.00;93.50;;;;;;5038204;28;20463;-64
2022/08/24 07:56:30;;;;;;;7.33;6.47;;;18.10;92.30;;;;;;5043142;28;20485;-62
2022/08/24 07:58:56;;;;;;;6.67;6.00;;;18.20;92.10;;;;;;5053672;28;20923;-62
2022/08/24 08:01:23;;;;;;;6.40;5.70;;;18.40;92.10;;;;;;5040821;28;20471;-62
2022/08/24 08:03:49;;;;;;;8.20;5.53;;;18.50;91.50;;;;;;5039677;28;20775;-62
2022/08/24 08:06:16;;;;;;;8.07;6.20;;;18.60;90.40;;;;;;5038713;28;20476;-61
2022/08/24 08:08:42;;;;;;;8.30;6.07;;;18.80;89.50;;;;;;5038967;28;20575;-66
2022/08/24 08:11:10;;;;;;;10.10;6.50;;;18.90;89.10;;;;;;5041306;28;20528;-63
2022/08/24 08:13:36;;;;;;;7.57;6.77;;;19.10;88.90;;;;;;5044197;28;20178;-63
2022/08/24 08:16:03;;;;;;;12.57;6.17;;;19.20;88.30;;;;;;5039283;28;20488;-62
2022/08/24 08:18:29;;;;;;;8.50;6.47;;;19.30;87.80;;;;;;5042110;28;20426;-61
2022/08/24 08:20:55;;;;;;;7.23;6.37;;;19.40;88.00;;;;;;5037754;28;21343;-64
2022/08/24 08:26:10;;;;;;;7.47;5.37;;;19.80;82.60;;;;;;5043306;28;20213;-62
2022/08/24 08:28:36;;;;;;;5.87;4.80;;;20.00;78.50;;;;;;5039838;28;20520;-61
2022/08/24 08:31:03;;;;;;;6.20;5.30;;;20.10;75.00;;;;;;5039643;28;20649;-60
2022/08/24 08:33:30;;;;;;;10.60;4.87;;;20.30;72.90;;;;;;5041827;28;20188;-62
2022/08/24 08:36:06;;;;;;;8.50;4.87;;;20.50;69.40;;;;;;5051272;28;20537;-62
2022/08/24 08:38:32;;;;;;;6.90;4.20;;;20.60;68.40;;;;;;5038185;28;20440;-62
2022/08/24 08:41:20;;;;;;;7.73;4.07;;;20.80;67.30;;;;;;5045325;28;20528;-63
2022/08/24 08:43:47;;;;;;;5.13;3.73;;;21.00;63.60;;;;;;5039496;28;20193;-62
2022/08/24 08:46:48;;;;;;;4.60;3.83;;;21.10;61.10;;;;;;5053355;28;20464;-61
2022/08/24 08:49:29;;;;;;;4.80;3.27;;;21.30;60.20;;;;;;5039822;28;20437;-63
2022/08/24 08:52:13;;;;;;;4.50;2.63;;;21.40;58.10;;;;;;5044278;28;20426;-63
2022/08/24 08:54:47;;;;;;;5.90;3.43;;;21.60;55.60;;;;;;5046500;28;20998;-61
2022/08/24 08:57:16;;;;;;;10.97;3.20;;;21.70;54.70;;;;;;5046380;28;20462;-61
2022/08/24 09:00:21;;;;;;;4.23;2.97;;;21.80;54.50;;;;;;5045704;28;21003;-66
2022/08/24 09:03:10;;;;;;;3.27;2.60;;;22.00;54.40;;;;;;5039426;28;20440;-65
2022/08/24 09:05:57;;;;;;;3.50;2.70;;;22.20;53.10;;;;;;5037802;28;20467;-64
2022/08/24 09:08:29;;;;;;;3.63;2.37;;;22.30;52.20;;;;;;5041538;28;20424;-63
2022/08/24 09:11:14;;;;;;;4.03;2.90;;;22.40;51.40;;;;;;5045271;28;20433;-65
2022/08/24 09:14:11;;;;;;;7.67;2.70;;;22.60;52.30;;;;;;5049746;28;20437;-61
2022/08/24 09:16:45;;;;;;;2.93;2.60;;;22.70;51.30;;;;;;5027426;28;20842;-67
2022/08/24 09:19:28;;;;;;;6.73;2.60;;;22.90;50.70;;;;;;5039064;28;20949;-64
2022/08/24 09:22:16;;;;;;;2.33;2.13;;;23.10;51.30;;;;;;5041096;28;20467;-62
2022/08/24 09:24:53;;;;;;;7.33;2.40;;;23.30;50.70;;;;;;5041043;28;21187;-66
2022/08/24 09:27:42;;;;;;;2.10;2.00;;;23.40;49.30;;;;;;5039050;28;20456;-59
2022/08/24 09:30:25;;;;;;;3.63;2.10;;;23.60;47.60;;;;;;5039668;28;20520;-63
2022/08/24 09:33:17;;;;;;;5.60;2.47;;;23.60;46.70;;;;;;5039645;28;20424;-66
2022/08/24 09:35:52;;;;;;;3.13;2.67;;;23.70;46.90;;;;;;5038064;28;20462;-64
2022/08/24 09:38:39;;;;;;;4.00;2.13;;;23.90;47.00;;;;;;5043816;28;20456;-64
2022/08/24 09:41:14;;;;;;;2.23;1.93;;;24.00;47.30;;;;;;5040781;28;20970;-60
2022/08/24 09:44:04;;;;;;;5.93;2.30;;;24.10;46.40;;;;;;5043847;28;20448;-62
2022/08/24 09:46:44;;;;;;;2.73;2.13;;;24.20;45.50;;;;;;5038487;28;20473;-63
2022/08/24 09:49:35;;;;;;;3.53;2.20;;;24.30;45.90;;;;;;5038138;28;20443;-64
2022/08/24 09:52:20;;;;;;;2.00;1.80;;;24.40;45.70;;;;;;5043329;28;21101;-63
2022/08/24 09:55:14;;;;;;;3.80;2.37;;;24.50;45.30;;;;;;5039862;28;20456;-61
2022/08/24 09:58:02;;;;;;;2.50;2.30;;;24.60;45.30;;;;;;5039784;28;21024;-64
2022/08/24 10:00:38;;;;;;;5.03;2.57;;;24.70;45.00;;;;;;5040693;28;20543;-63
2022/08/24 10:03:16;;;;;;;8.90;3.00;;;24.80;45.30;;;;;;5039137;28;20424;-64
2022/08/24 10:06:06;;;;;;;4.73;2.20;;;24.90;46.20;;;;;;5044517;28;20453;-62
2022/08/24 10:09:06;;;;;;;7.93;2.20;;;25.00;45.30;;;;;;5042180;28;20418;-61
2022/08/24 10:12:01;;;;;;;3.53;2.30;;;25.10;44.60;;;;;;5017061;28;21063;-60
2022/08/24 10:14:41;;;;;;;5.33;2.50;;;25.20;45.30;;;;;;5034666;28;20853;-64
2022/08/24 10:17:23;;;;;;;2.37;2.17;;;25.40;45.50;;;;;;5035222;28;20878;-62
2022/08/24 10:20:15;;;;;;;11.43;2.53;;;25.40;45.70;;;;;;5043069;28;20462;-61
2022/08/24 10:23:15;;;;;;;4.73;2.80;;;25.50;45.40;;;;;;5046650;28;20835;-60
2022/08/24 10:26:01;;;;;;;4.07;2.33;;;25.50;45.10;;;;;;4990311;28;20478;-62
2022/08/24 10:28:52;;;;;;;2.90;1.90;;;25.60;45.40;;;;;;5037488;28;20421;-65
2022/08/24 10:31:30;;;;;;;3.43;2.10;;;25.60;44.30;;;;;;5036639;28;20504;-61
2022/08/24 10:34:17;;;;;;;8.70;2.70;;;25.60;43.90;;;;;;5039126;28;20424;-64
2022/08/24 10:36:52;;;;;;;4.50;2.20;;;25.60;45.00;;;;;;5034463;28;20469;-63
2022/08/24 10:39:42;;;;;;;6.30;2.57;;;25.60;43.90;;;;;;5042393;28;20420;-63
2022/08/24 10:45:17;;;;;;;3.43;2.40;;;25.40;43.80;;;;;;5034490;28;20451;-65
2022/08/24 10:48:16;;;;;;;20.83;2.70;;;25.20;43.50;;;;;;5037532;28;21459;-61
2022/08/24 10:51:27;;;;;;;3.40;1.97;;;25.20;45.10;;;;;;5030675;28;21033;-63
2022/08/24 10:53:55;;;;;;;4.00;2.27;;;25.30;44.30;;;;;;5033467;28;20440;-64
2022/08/24 10:56:51;;;;;;;3.93;2.63;;;25.50;45.10;;;;;;5035301;28;20568;-64
2022/08/24 10:59:42;;;;;;;4.80;2.73;;;25.70;45.40;;;;;;5036884;28;20433;-63
2022/08/24 11:02:34;;;;;;;3.43;2.30;;;25.90;46.20;;;;;;5044597;28;20428;-62
2022/08/24 11:05:07;;;;;;;2.43;2.23;;;26.10;44.90;;;;;;5040327;28;22330;-63
2022/08/24 11:07:34;;;;;;;3.33;2.20;;;26.20;44.50;;;;;;5040884;28;20461;-62
2022/08/24 11:10:09;;;;;;;2.53;2.33;;;26.30;44.30;;;;;;5039261;28;20524;-62
2022/08/24 11:12:41;;;;;;;3.80;2.37;;;26.50;45.50;;;;;;5036809;28;20487;-61
2022/08/24 11:15:16;;;;;;;2.90;2.07;;;26.60;44.40;;;;;;5039708;28;20475;-62
2022/08/24 11:18:02;;;;;;;3.83;2.10;;;26.70;42.80;;;;;;5038500;28;20467;-62
2022/08/24 11:20:31;;;;;;;3.37;2.20;;;26.80;43.20;;;;;;5040691;28;20447;-63
2022/08/24 11:23:01;;;;;;;2.50;2.30;;;26.90;43.00;;;;;;5038958;28;20934;-62
2022/08/24 11:25:28;;;;;;;4.53;2.27;;;27.00;42.30;;;;;;5035673;28;20563;-66
2022/08/24 11:28:26;;;;;;;3.03;2.30;;;27.00;41.90;;;;;;5034617;28;20437;-62
2022/08/24 11:30:52;;;;;;;4.43;2.23;;;27.20;42.50;;;;;;5025493;28;20425;-63
2022/08/24 11:33:34;;;;;;;2.53;2.30;;;27.30;43.50;;;;;;5027809;28;20949;-61
2022/08/24 11:36:01;;;;;;;2.30;2.10;;;27.50;41.80;;;;;;5038686;28;20260;-64
2022/08/24 11:38:33;;;;;;;2.00;1.90;;;27.60;41.90;;;;;;5045812;28;20167;-64
2022/08/24 11:41:19;;;;;;;3.00;2.03;;;27.70;42.90;;;;;;5032095;28;20236;-63
2022/08/24 11:43:52;;;;;;;2.13;1.93;;;27.70;41.50;;;;;;5037333;28;20182;-63
2022/08/24 11:46:31;;;;;;;6.60;2.07;;;27.90;41.60;;;;;;5038965;28;20194;-63
2022/08/24 11:49:20;;;;;;;3.10;2.10;;;27.90;41.90;;;;;;5038299;28;20648;-63
2022/08/24 11:51:52;;;;;;;2.70;1.97;;;28.00;40.40;;;;;;5041396;28;20197;-63
2022/08/24 11:54:36;;;;;;;2.13;1.93;;;28.10;39.10;;;;;;5040102;28;20224;-64
2022/08/24 11:57:16;;;;;;;5.00;2.10;;;28.20;40.50;;;;;;5034381;28;20217;-63
2022/08/24 12:00:08;;;;;;;2.17;1.83;;;28.20;41.20;;;;;;5033353;28;20229;-65
2022/08/24 12:03:01;;;;;;;5.50;2.13;;;28.30;40.70;;;;;;5039615;28;20223;-62
2022/08/24 12:05:33;;;;;;;2.70;2.00;;;28.40;40.70;;;;;;5030333;28;20558;-63
2022/08/24 12:07:58;;;;;;;2.80;2.10;;;28.60;41.20;;;;;;5040293;28;20184;-62
2022/08/24 12:10:39;;;;;;;2.40;2.20;;;28.70;41.80;;;;;;5032613;28;20197;-61
2022/08/24 12:13:24;;;;;;;2.17;1.90;;;28.90;41.20;;;;;;5038031;28;20186;-63
2022/08/24 12:16:02;;;;;;;3.57;1.97;;;29.00;40.00;;;;;;5034081;28;20446;-63
2022/08/24 12:19:08;;;;;;;3.23;1.97;;;29.10;38.80;;;;;;5036646;28;20193;-63
2022/08/24 12:21:38;;;;;;;2.33;2.05;;;29.10;37.60;;;;;;4999943;28;20609;-63
2022/08/24 12:24:11;;;;;;;2.28;1.90;;;29.10;39.10;;;;;;5033545;28;20182;-62
2022/08/24 12:26:42;;;;;;;2.00;1.90;;;29.20;39.30;;;;;;5038360;28;20784;-62
2022/08/24 12:29:19;;;;;;;2.85;1.90;;;29.30;37.90;;;;;;5041233;28;20643;-62
2022/08/24 12:31:54;;;;;;;6.65;2.63;;;29.40;38.40;;;;;;5038945;28;20265;-61
2022/08/24 12:34:44;;;;;;;3.10;1.92;;;29.50;38.20;;;;;;5045756;28;20205;-63
2022/08/24 12:37:28;;;;;;;3.17;1.92;;;29.70;38.00;;;;;;5038226;28;20302;-64
2022/08/24 12:40:00;;;;;;;7.38;2.05;;;29.70;36.90;;;;;;5038730;28;20198;-62
2022/08/24 12:42:50;;;;;;;2.63;2.10;;;29.80;37.40;;;;;;5042071;28;20178;-63
2022/08/24 12:45:19;;;;;;;3.17;2.17;;;29.90;37.30;;;;;;5039786;28;20175;-62
2022/08/24 12:48:02;;;;;;;4.22;2.00;;;30.00;38.30;;;;;;5042962;28;20244;-61
2022/08/24 12:50:43;;;;;;;3.63;1.98;;;30.10;37.10;;;;;;5041018;28;20182;-62
2022/08/24 12:53:23;;;;;;;3.55;2.08;;;30.30;36.60;;;;;;5040342;28;20191;-62
2022/08/24 12:55:52;;;;;;;2.20;1.98;;;30.50;36.70;;;;;;5036522;28;20403;-62
2022/08/24 12:58:32;;;;;;;2.78;2.05;;;30.70;36.80;;;;;;5040832;28;20181;-61
2022/08/24 13:01:03;;;;;;;2.85;1.80;;;30.80;35.80;;;;;;5035525;28;20182;-60
2022/08/24 13:03:35;;;;;;;3.50;2.05;;;30.90;36.40;;;;;;5041900;28;20179;-61
2022/08/24 13:06:06;;;;;;;5.18;1.60;;;31.10;37.40;;;;;;5036478;28;20199;-62
2022/08/24 13:08:39;;;;;;;4.07;2.58;;;31.20;36.70;;;;;;5041134;28;20225;-60
2022/08/24 13:11:14;;;;;;;2.60;2.20;;;31.30;37.00;;;;;;5044559;28;20213;-62
2022/08/24 13:13:39;;;;;;;1.50;1.40;;;31.40;36.00;;;;;;5038371;28;20662;-61
2022/08/24 13:16:05;;;;;;;3.83;2.08;;;31.40;34.60;;;;;;5036910;28;20215;-61
2022/08/24 13:18:49;;;;;;;2.20;1.67;;;31.50;35.10;;;;;;5042929;28;20172;-59
2022/08/24 13:21:33;;;;;;;3.25;1.80;;;31.50;35.10;;;;;;5040523;28;20671;-63